createdAt,value
2019-03-04T00:00:10.990Z,98921.55
2019-03-04T00:02:36.787Z,98909.31
2019-03-04T00:05:04.269Z,98910.15
2019-03-04T00:07:30.069Z,98901.52
2019-03-04T00:09:55.843Z,98901.52
2019-03-04T00:12:21.672Z,98927.23
2019-03-04T00:14:47.455Z,98924.66
2019-03-04T00:17:13.249Z,98929.47
2019-03-04T00:19:39.035Z,98917.55
2019-03-04T00:22:04.807Z,98913.00
2019-03-04T00:24:30.599Z,98912.13
2019-03-04T00:26:56.369Z,98900.29
2019-03-04T00:29:22.165Z,98904.92
2019-03-04T00:31:47.953Z,98893.08
2019-03-04T00:34:13.748Z,98894.47
2019-03-04T00:36:39.526Z,98894.33
2019-03-04T00:39:08.524Z,98889.70
2019-03-04T00:41:34.312Z,98892.22
2019-03-04T00:44:00.100Z,98879.55
2019-03-04T00:46:25.877Z,98880.67
2019-03-04T00:48:51.703Z,98885.34
2019-03-04T00:51:17.491Z,98873.21
2019-03-04T00:53:43.296Z,98879.33
2019-03-04T00:56:09.078Z,98874.74
2019-03-04T00:58:34.931Z,98881.48
2019-03-04T01:03:46.216Z,98870.23
2019-03-04T01:06:12.092Z,98882.03
2019-03-04T01:08:37.877Z,98873.06
2019-03-04T01:11:04.668Z,98875.94
2019-03-04T01:13:31.595Z,98877.36
2019-03-04T01:15:57.427Z,98865.41
2019-03-04T01:18:23.200Z,98865.88
2019-03-04T01:20:49.001Z,98867.41
2019-03-04T01:23:14.777Z,98858.95
2019-03-04T01:25:40.579Z,98855.34
2019-03-04T01:28:06.349Z,98845.37
2019-03-04T01:30:32.147Z,98852.24
2019-03-04T01:32:57.927Z,98843.64
2019-03-04T01:35:23.715Z,98843.53
2019-03-04T01:37:49.493Z,98840.80
2019-03-04T01:40:18.191Z,98825.11
2019-03-04T01:42:43.984Z,98806.34
2019-03-04T01:45:11.786Z,98806.34
2019-03-04T01:47:37.670Z,98811.30
2019-03-04T01:50:06.360Z,98816.94
2019-03-04T01:52:32.138Z,98816.35
2019-03-04T01:54:57.957Z,98787.78
2019-03-04T01:57:23.730Z,98779.70
2019-03-04T01:59:49.513Z,98750.95
2019-03-04T02:02:15.299Z,98753.69
2019-03-04T02:04:41.075Z,98771.92
2019-03-04T02:07:06.867Z,98772.72
2019-03-04T02:09:32.651Z,98756.97
2019-03-04T02:11:58.440Z,98740.26
2019-03-04T02:14:24.222Z,98734.40
2019-03-04T02:16:50.036Z,98725.19
2019-03-04T02:19:15.811Z,98732.43
2019-03-04T02:21:41.607Z,98733.34
2019-03-04T02:24:20.118Z,98727.70
2019-03-04T02:26:45.909Z,98708.39
2019-03-04T02:29:11.683Z,98705.19
2019-03-04T02:31:37.487Z,98697.94
2019-03-04T02:34:03.260Z,98689.05
2019-03-04T02:36:29.070Z,98678.72
2019-03-04T02:38:54.833Z,98696.42
2019-03-04T02:41:20.624Z,98684.07
2019-03-04T02:43:46.396Z,98669.25
2019-03-04T02:46:12.186Z,98676.80
2019-03-04T02:48:37.955Z,98678.84
2019-03-04T02:51:03.731Z,98670.98
2019-03-04T02:53:29.530Z,98660.69
2019-03-04T02:55:55.306Z,98650.94
2019-03-04T02:58:21.099Z,98632.11
2019-03-04T03:00:46.882Z,98628.91
2019-03-04T03:03:12.675Z,98622.97
2019-03-04T03:05:38.463Z,98615.05
2019-03-04T03:08:04.252Z,98615.05
2019-03-04T03:10:30.031Z,98623.71
2019-03-04T03:12:55.827Z,98603.34
2019-03-04T03:15:21.615Z,98599.59
2019-03-04T03:17:47.422Z,98605.02
2019-03-04T03:20:14.089Z,98612.45
2019-03-04T03:22:39.896Z,98587.26
2019-03-04T03:25:08.311Z,98594.60
2019-03-04T03:27:34.074Z,98572.52
2019-03-04T03:29:59.856Z,98572.52
2019-03-04T03:32:25.666Z,98564.47
2019-03-04T03:34:51.517Z,98565.56
2019-03-04T03:37:17.292Z,98557.19
2019-03-04T03:39:43.082Z,98553.77
2019-03-04T03:42:08.852Z,98544.39
2019-03-04T03:44:34.646Z,98536.59
2019-03-04T03:47:00.473Z,98543.33
2019-03-04T03:49:26.306Z,98542.84
2019-03-04T03:51:52.081Z,98540.14
2019-03-04T03:54:17.865Z,98531.56
2019-03-04T03:56:43.655Z,98534.69
2019-03-04T03:59:09.429Z,98528.63
2019-03-04T04:01:35.210Z,98520.23
2019-03-04T04:04:01.007Z,98514.86
2019-03-04T04:06:26.781Z,98510.14
2019-03-04T04:08:52.556Z,98516.88
2019-03-04T04:11:18.340Z,98518.80
2019-03-04T04:13:44.126Z,98504.25
2019-03-04T04:16:09.916Z,98497.48
2019-03-04T04:18:35.701Z,98489.89
2019-03-04T04:21:01.489Z,98482.66
2019-03-04T04:23:27.267Z,98476.73
2019-03-04T04:25:53.064Z,98456.81
2019-03-04T04:28:18.835Z,98462.48
2019-03-04T04:30:44.623Z,98453.89
2019-03-04T04:33:10.394Z,98436.08
2019-03-04T04:35:36.188Z,98426.92
2019-03-04T04:38:01.966Z,98427.02
2019-03-04T04:40:28.359Z,98401.68
2019-03-04T04:42:54.145Z,98399.77
2019-03-04T04:45:19.939Z,98394.95
2019-03-04T04:47:45.721Z,98390.67
2019-03-04T04:50:23.158Z,98386.08
2019-03-04T04:52:48.941Z,98367.46
2019-03-04T04:55:14.748Z,98356.95
2019-03-04T04:57:40.532Z,98366.69
2019-03-04T05:00:09.513Z,98348.16
2019-03-04T05:02:35.307Z,98326.52
2019-03-04T05:05:01.079Z,98326.78
2019-03-04T05:07:26.865Z,98317.59
2019-03-04T05:09:52.649Z,98310.32
2019-03-04T05:12:18.436Z,98301.66
2019-03-04T05:14:44.217Z,98304.36
2019-03-04T05:17:10.012Z,98311.10
2019-03-04T05:19:35.800Z,98310.84
2019-03-04T05:22:01.591Z,98293.03
2019-03-04T05:24:29.554Z,98292.28
2019-03-04T05:26:55.074Z,98290.61
2019-03-04T05:29:20.854Z,98285.27
2019-03-04T05:31:46.654Z,98285.31
2019-03-04T05:34:12.434Z,98282.86
2019-03-04T05:36:38.244Z,98273.07
2019-03-04T05:39:04.820Z,98272.50
2019-03-04T05:41:30.608Z,98265.15
2019-03-04T05:43:56.399Z,98244.28
2019-03-04T05:46:22.180Z,98224.00
2019-03-04T05:48:47.971Z,98207.24
2019-03-04T05:51:13.759Z,98198.31
2019-03-04T05:53:39.547Z,98178.61
2019-03-04T05:56:05.318Z,98182.91
2019-03-04T05:58:31.103Z,98168.33
2019-03-04T06:01:20.756Z,98161.80
2019-03-04T06:03:48.960Z,98139.38
2019-03-04T06:06:15.743Z,98139.38
2019-03-04T06:08:41.539Z,98128.63
2019-03-04T06:11:07.312Z,98123.23
2019-03-04T06:13:33.111Z,98107.06
2019-03-04T06:15:58.884Z,98099.54
2019-03-04T06:18:24.683Z,98100.09
2019-03-04T06:20:50.463Z,98092.81
2019-03-04T06:23:16.256Z,98088.03
2019-03-04T06:25:42.041Z,98085.63
2019-03-04T06:28:07.829Z,98085.63
2019-03-04T06:30:33.603Z,98083.26
2019-03-04T06:32:59.401Z,98090.05
2019-03-04T06:35:25.177Z,98087.63
2019-03-04T06:37:50.990Z,98076.89
2019-03-04T06:40:18.165Z,98073.41
2019-03-04T06:42:43.949Z,98065.31
2019-03-04T06:45:11.842Z,98067.73
2019-03-04T06:47:38.129Z,98066.70
2019-03-04T06:50:07.430Z,98064.28
2019-03-04T06:52:33.216Z,98055.95
2019-03-04T06:55:02.811Z,98059.99
2019-03-04T06:57:28.974Z,98054.62
2019-03-04T07:00:19.943Z,98050.34
2019-03-04T07:02:45.723Z,98041.42
2019-03-04T07:05:15.331Z,98029.03
2019-03-04T07:07:41.128Z,98024.98
2019-03-04T07:10:07.511Z,98016.62
2019-03-04T07:12:33.294Z,98015.27
2019-03-04T07:14:59.092Z,98013.64
2019-03-04T07:17:24.880Z,97999.35
2019-03-04T07:20:09.180Z,98002.34
2019-03-04T07:22:34.980Z,97995.05
2019-03-04T07:25:00.768Z,97979.96
2019-03-04T07:27:26.546Z,97977.27
2019-03-04T07:29:52.827Z,97980.48
2019-03-04T07:32:18.607Z,97982.93
2019-03-04T07:34:44.399Z,97966.73
2019-03-04T07:37:10.175Z,97956.19
2019-03-04T07:39:35.977Z,97946.27
2019-03-04T07:42:01.752Z,97951.67
2019-03-04T07:44:27.542Z,97940.04
2019-03-04T07:46:53.314Z,97936.79
2019-03-04T07:49:19.090Z,97934.63
2019-03-04T07:51:44.971Z,97924.36
2019-03-04T07:54:10.858Z,97924.89
2019-03-04T07:56:36.646Z,97925.70
2019-03-04T07:59:02.523Z,97914.90
2019-03-04T08:01:28.321Z,97918.70
2019-03-04T08:03:54.093Z,97899.76
2019-03-04T08:06:19.883Z,97907.89
2019-03-04T08:09:07.165Z,97903.03
2019-03-04T08:11:48.689Z,97898.71
2019-03-04T08:14:14.476Z,97880.08
2019-03-04T08:16:40.280Z,97878.96
2019-03-04T08:19:06.051Z,97885.45
2019-03-04T08:21:31.835Z,97868.16
2019-03-04T08:23:57.615Z,97867.34
2019-03-04T08:26:23.407Z,97863.52
2019-03-04T08:28:49.178Z,97851.36
2019-03-04T08:31:15.063Z,97841.31
2019-03-04T08:33:40.850Z,97824.02
2019-03-04T08:36:06.642Z,97823.98
2019-03-04T08:38:32.420Z,97820.96
2019-03-04T08:40:58.202Z,97808.77
2019-03-04T08:43:23.983Z,97810.15
2019-03-04T08:45:49.774Z,97797.91
2019-03-04T08:48:15.629Z,97789.59
2019-03-04T08:50:41.446Z,97781.92
2019-03-04T08:53:07.230Z,97771.12
2019-03-04T08:55:33.021Z,97764.95
2019-03-04T08:57:58.795Z,97763.72
2019-03-04T09:00:28.695Z,97763.80
2019-03-04T09:02:54.478Z,97764.94
2019-03-04T09:05:20.268Z,97754.42
2019-03-04T09:07:46.060Z,97763.18
2019-03-04T09:10:14.938Z,97792.53
2019-03-04T09:12:40.724Z,97822.64
2019-03-04T09:15:09.616Z,97885.20
2019-03-04T09:17:35.431Z,97858.91
2019-03-04T09:20:01.301Z,97885.72
2019-03-04T09:22:27.096Z,97880.14
2019-03-04T09:24:52.877Z,97879.00
2019-03-04T09:27:18.665Z,97888.73
2019-03-04T09:29:46.590Z,97916.59
2019-03-04T09:32:12.135Z,97905.70
2019-03-04T09:34:37.923Z,97919.52
2019-03-04T09:37:03.724Z,97917.49
2019-03-04T09:39:29.504Z,97900.73
2019-03-04T09:41:57.194Z,97905.31
2019-03-04T09:44:22.979Z,97907.67
2019-03-04T09:46:48.771Z,97889.04
2019-03-04T09:49:14.561Z,97853.47
2019-03-04T09:51:40.344Z,97839.14
2019-03-04T09:54:06.127Z,97822.47
2019-03-04T09:56:31.918Z,97824.09
2019-03-04T09:58:57.691Z,97830.33
2019-03-04T10:01:27.294Z,97845.70
2019-03-04T10:04:05.890Z,97851.73
2019-03-04T10:06:41.418Z,97852.16
2019-03-04T10:09:13.751Z,97848.00
2019-03-04T10:11:43.410Z,97830.39
2019-03-04T10:14:12.954Z,97830.39
2019-03-04T10:16:45.561Z,97851.38
2019-03-04T10:19:31.610Z,97851.40
2019-03-04T10:22:04.430Z,97849.84
2019-03-04T10:24:39.560Z,97862.55
2019-03-04T10:27:09.161Z,97856.70
2019-03-04T10:30:00.250Z,97849.55
2019-03-04T10:32:45.376Z,97835.34
2019-03-04T10:35:30.395Z,97830.31
2019-03-04T10:38:09.129Z,97811.44
2019-03-04T10:40:53.351Z,97811.44
2019-03-04T10:43:31.805Z,97797.27
2019-03-04T10:46:18.078Z,97805.34
2019-03-04T10:48:43.883Z,97798.11
2019-03-04T10:51:09.674Z,97798.11
2019-03-04T10:53:35.469Z,97801.48
2019-03-04T10:56:01.254Z,97803.71
2019-03-04T10:58:27.042Z,97799.72
2019-03-04T11:00:52.841Z,97818.84
2019-03-04T11:03:18.628Z,97798.58
2019-03-04T11:05:44.407Z,97785.05
2019-03-04T11:08:10.207Z,97795.80
2019-03-04T11:10:35.997Z,97783.41
2019-03-04T11:13:01.782Z,97783.41
2019-03-04T11:15:27.559Z,97784.45
2019-03-04T11:17:54.445Z,97773.64
2019-03-04T11:20:20.463Z,97768.22
2019-03-04T11:22:46.230Z,97769.81
2019-03-04T11:25:12.619Z,97768.98
2019-03-04T11:27:38.403Z,97764.66
2019-03-04T11:30:10.569Z,97764.66
2019-03-04T11:32:36.352Z,97746.70
2019-03-04T11:35:04.147Z,97763.95
2019-03-04T11:37:29.941Z,97841.66
2019-03-04T11:39:57.641Z,97841.66
2019-03-04T11:42:23.419Z,97877.62
2019-03-04T11:44:49.208Z,97880.11
2019-03-04T11:47:16.918Z,97897.08
2019-03-04T11:49:42.763Z,97895.34
2019-03-04T11:52:08.583Z,97894.12
2019-03-04T11:54:34.371Z,97906.38
2019-03-04T11:57:00.149Z,97914.98
2019-03-04T11:59:25.950Z,97903.98
2019-03-04T12:01:51.819Z,97919.84
2019-03-04T12:04:17.612Z,97915.91
2019-03-04T12:06:43.388Z,97923.73
2019-03-04T12:09:11.583Z,97916.00
2019-03-04T12:11:38.413Z,97920.31
2019-03-04T12:14:04.372Z,97932.82
2019-03-04T12:16:30.162Z,97926.25
2019-03-04T12:18:55.973Z,97930.75
2019-03-04T12:21:21.755Z,97930.39
2019-03-04T12:23:47.534Z,97932.50
2019-03-04T12:26:13.324Z,97944.02
2019-03-04T12:28:39.103Z,97936.69
2019-03-04T12:31:04.892Z,97932.52
2019-03-04T12:33:30.678Z,97942.02
2019-03-04T12:35:56.489Z,97940.09
2019-03-04T12:38:22.265Z,97934.65
2019-03-04T12:40:48.064Z,97954.95
2019-03-04T12:43:13.843Z,97939.05
2019-03-04T12:45:39.713Z,97936.76
2019-03-04T12:48:05.479Z,97945.49
2019-03-04T12:50:33.080Z,97939.34
2019-03-04T12:52:58.964Z,97938.19
2019-03-04T12:55:24.759Z,97931.88
2019-03-04T12:57:50.530Z,97939.66
2019-03-04T13:00:18.541Z,97938.89
2019-03-04T13:02:44.324Z,97942.14
2019-03-04T13:05:12.987Z,97934.25
2019-03-04T13:07:38.744Z,97940.32
2019-03-04T13:10:13.022Z,97931.73
2019-03-04T13:12:40.425Z,97936.64
2019-03-04T13:15:21.549Z,97936.64
2019-03-04T13:17:47.657Z,97942.67
2019-03-04T13:20:27.493Z,97929.59
2019-03-04T13:22:53.271Z,97929.59
2019-03-04T13:25:19.065Z,97921.50
2019-03-04T13:27:44.843Z,97922.67
2019-03-04T13:30:26.169Z,97919.29
2019-03-04T13:32:51.964Z,97910.66
2019-03-04T13:35:25.052Z,97921.12
2019-03-04T13:37:50.979Z,97927.20
2019-03-04T13:40:16.855Z,97952.55
2019-03-04T13:42:42.650Z,97929.59
2019-03-04T13:45:10.923Z,97926.59
2019-03-04T13:47:36.720Z,97944.89
2019-03-04T13:50:06.298Z,97945.28
2019-03-04T13:52:32.095Z,97938.86
2019-03-04T13:54:57.872Z,97942.09
2019-03-04T13:57:23.675Z,97943.89
2019-03-04T13:59:49.471Z,97923.59
2019-03-04T14:02:15.375Z,97937.44
2019-03-04T14:04:41.159Z,97935.44
2019-03-04T14:07:06.946Z,97933.84
2019-03-04T14:09:32.735Z,97952.38
2019-03-04T14:11:58.530Z,97947.38
2019-03-04T14:14:24.309Z,97949.52
2019-03-04T14:16:50.131Z,97961.39
2019-03-04T14:19:15.912Z,97948.14
2019-03-04T14:21:41.686Z,97953.83
2019-03-04T14:24:07.474Z,97933.02
2019-03-04T14:26:33.263Z,97930.56
2019-03-04T14:28:59.063Z,97942.47
2019-03-04T14:31:24.844Z,97942.47
2019-03-04T14:33:50.631Z,97939.50
2019-03-04T14:36:16.411Z,97942.25
2019-03-04T14:38:42.202Z,97924.31
2019-03-04T14:41:07.985Z,97938.48
2019-03-04T14:43:33.782Z,97942.75
2019-03-04T14:45:59.659Z,97942.75
2019-03-04T14:48:25.447Z,97939.59
2019-03-04T14:50:51.232Z,97953.27
2019-03-04T14:53:17.026Z,97950.00
2019-03-04T14:55:42.806Z,97959.98
2019-03-04T14:58:08.603Z,97952.45
2019-03-04T15:00:41.818Z,97976.80
2019-03-04T15:03:07.603Z,97971.59
2019-03-04T15:05:33.390Z,97964.74
2019-03-04T15:07:59.180Z,97955.07
2019-03-04T15:10:24.965Z,97956.92
2019-03-04T15:12:50.783Z,97958.98
2019-03-04T15:15:21.505Z,97950.14
2019-03-04T15:17:47.297Z,97959.23
2019-03-04T15:20:24.519Z,97962.33
2019-03-04T15:22:50.302Z,97963.14
2019-03-04T15:25:39.950Z,97977.64
2019-03-04T15:28:13.419Z,97959.25
2019-03-04T15:30:40.822Z,97966.78
2019-03-04T15:33:06.731Z,97975.99
2019-03-04T15:35:32.506Z,97978.75
2019-03-04T15:37:58.283Z,97987.63
2019-03-04T15:40:24.069Z,97990.64
2019-03-04T15:42:49.845Z,97984.82
2019-03-04T15:45:15.636Z,97980.98
2019-03-04T15:47:42.211Z,97981.61
2019-03-04T15:50:09.606Z,97984.28
2019-03-04T15:52:35.386Z,97981.73
2019-03-04T15:55:01.179Z,97979.85
2019-03-04T15:57:27.056Z,97989.47
2019-03-04T15:59:52.847Z,97976.38
2019-03-04T16:02:18.621Z,97985.87
2019-03-04T16:04:44.411Z,98000.68
2019-03-04T16:07:10.688Z,97991.89
2019-03-04T16:09:36.482Z,97988.08
2019-03-04T16:12:02.255Z,97997.20
2019-03-04T16:14:28.143Z,97985.20
2019-03-04T16:16:53.925Z,97998.38
2019-03-04T16:19:19.723Z,97994.91
2019-03-04T16:21:45.501Z,98016.86
2019-03-04T16:24:11.299Z,98000.92
2019-03-04T16:26:37.074Z,98009.25
2019-03-04T16:29:02.948Z,98017.20
2019-03-04T16:31:28.735Z,98008.83
2019-03-04T16:33:54.508Z,98020.34
2019-03-04T16:36:20.300Z,98029.55
2019-03-04T16:38:46.070Z,98023.19
2019-03-04T16:41:11.863Z,98035.82
2019-03-04T16:43:37.632Z,98044.48
2019-03-04T16:46:03.429Z,98030.88
2019-03-04T16:48:29.205Z,98044.61
2019-03-04T16:50:55.097Z,98059.38
2019-03-04T16:53:27.248Z,98052.64
2019-03-04T16:55:53.036Z,98039.12
2019-03-04T16:58:18.805Z,98068.37
2019-03-04T17:00:45.297Z,98072.72
2019-03-04T17:03:11.169Z,98074.70
2019-03-04T17:05:36.964Z,98070.55
2019-03-04T17:08:03.045Z,98075.81
2019-03-04T17:10:28.845Z,98074.11
2019-03-04T17:12:54.715Z,98100.30
2019-03-04T17:15:21.603Z,98093.61
2019-03-04T17:17:48.098Z,98106.24
2019-03-04T17:20:15.193Z,98128.32
2019-03-04T17:22:40.970Z,98123.84
2019-03-04T17:25:13.065Z,98102.13
2019-03-04T17:27:38.842Z,98117.16
2019-03-04T17:30:08.165Z,98126.98
2019-03-04T17:32:33.946Z,98138.58
2019-03-04T17:34:59.724Z,98142.30
2019-03-04T17:37:25.528Z,98138.28
2019-03-04T17:39:52.303Z,98160.80
2019-03-04T17:42:18.161Z,98134.48
2019-03-04T17:44:43.935Z,98146.36
2019-03-04T17:47:09.889Z,98165.06
2019-03-04T17:49:35.646Z,98149.28
2019-03-04T17:52:01.485Z,98154.10
2019-03-04T17:54:27.255Z,98163.47
2019-03-04T17:56:53.049Z,98170.81
2019-03-04T17:59:18.827Z,98178.74
2019-03-04T18:01:44.649Z,98182.65
2019-03-04T18:04:10.439Z,98213.66
2019-03-04T18:06:36.229Z,98202.95
2019-03-04T18:09:02.705Z,98209.30
2019-03-04T18:11:28.545Z,98225.70
2019-03-04T18:13:54.409Z,98226.75
2019-03-04T18:16:20.245Z,98238.45
2019-03-04T18:18:46.032Z,98238.45
2019-03-04T18:21:11.863Z,98237.36
2019-03-04T18:23:37.637Z,98237.06
2019-03-04T18:26:10.384Z,98250.80
2019-03-04T18:28:58.412Z,98249.66
2019-03-04T18:32:00.252Z,98260.41
2019-03-04T18:34:44.803Z,98268.66
2019-03-04T18:37:23.684Z,98269.39
2019-03-04T18:39:56.456Z,98252.94
2019-03-04T18:42:31.988Z,98274.91
2019-03-04T18:45:10.883Z,98261.80
2019-03-04T18:48:15.443Z,98265.28
2019-03-04T18:50:41.218Z,98280.45
2019-03-04T18:53:07.024Z,98274.05
2019-03-04T18:55:32.900Z,98284.98
2019-03-04T18:57:58.700Z,98309.52
2019-03-04T19:00:24.981Z,98307.19
2019-03-04T19:02:50.771Z,98311.70
2019-03-04T19:05:16.543Z,98334.57
2019-03-04T19:07:42.335Z,98336.61
2019-03-04T19:10:10.111Z,98333.48
2019-03-04T19:12:35.907Z,98336.70
2019-03-04T19:15:01.888Z,98359.98
2019-03-04T19:17:33.525Z,98347.42
2019-03-04T19:19:55.372Z,98338.15
2019-03-04T19:22:21.161Z,98367.11
2019-03-04T19:24:46.947Z,98370.30
2019-03-04T19:27:12.720Z,98360.47
2019-03-04T19:29:38.517Z,98371.33
2019-03-04T19:32:04.287Z,98376.78
2019-03-04T19:34:30.079Z,98377.37
2019-03-04T19:36:55.855Z,98386.56
2019-03-04T19:39:21.642Z,98389.19
2019-03-04T19:41:47.412Z,98398.92
2019-03-04T19:44:13.208Z,98390.88
2019-03-04T19:46:39.087Z,98410.98
2019-03-04T19:49:04.882Z,98408.30
2019-03-04T19:51:30.650Z,98413.21
2019-03-04T19:53:56.447Z,98421.55
2019-03-04T19:56:22.223Z,98444.03
2019-03-04T19:58:48.018Z,98417.23
2019-03-04T20:01:13.791Z,98443.53
2019-03-04T20:03:39.582Z,98435.45
2019-03-04T20:06:05.356Z,98466.67
2019-03-04T20:08:31.131Z,98455.95
2019-03-04T20:10:56.920Z,98448.49
2019-03-04T20:13:22.995Z,98465.17
2019-03-04T20:15:50.289Z,98465.58
2019-03-04T20:18:16.070Z,98456.84
2019-03-04T20:20:41.863Z,98479.73
2019-03-04T20:23:07.634Z,98481.38
2019-03-04T20:25:34.022Z,98488.13
2019-03-04T20:27:59.799Z,98495.67
2019-03-04T20:30:25.767Z,98503.83
2019-03-04T20:32:51.669Z,98506.80
2019-03-04T20:35:18.171Z,98515.23
2019-03-04T20:37:59.848Z,98526.26
2019-03-04T20:40:25.635Z,98517.32
2019-03-04T20:42:51.697Z,98511.12
2019-03-04T20:45:19.347Z,98512.77
2019-03-04T20:47:45.249Z,98535.41
2019-03-04T20:50:16.533Z,98529.15
2019-03-04T20:52:42.720Z,98531.08
2019-03-04T20:55:09.735Z,98567.34
2019-03-04T20:57:35.547Z,98548.22
2019-03-04T21:00:03.036Z,98547.53
2019-03-04T21:02:28.825Z,98545.03
2019-03-04T21:04:54.614Z,98551.44
2019-03-04T21:07:20.629Z,98551.44
2019-03-04T21:09:46.835Z,98561.56
2019-03-04T21:12:12.894Z,98564.91
2019-03-04T21:14:39.639Z,98525.13
2019-03-04T21:17:05.432Z,98557.84
2019-03-04T21:19:31.223Z,98557.25
2019-03-04T21:21:57.034Z,98587.34
2019-03-04T21:24:22.808Z,98575.48
2019-03-04T21:26:48.696Z,98570.33
2019-03-04T21:29:30.302Z,98580.34
2019-03-04T21:31:55.605Z,98569.52
2019-03-04T21:34:36.654Z,98586.74
2019-03-04T21:37:09.288Z,98585.05
2019-03-04T21:39:48.429Z,98577.13
2019-03-04T21:42:24.031Z,98597.41
2019-03-04T21:45:02.703Z,98618.69
2019-03-04T21:47:50.685Z,98606.64
2019-03-04T21:50:32.616Z,98590.02
2019-03-04T21:53:05.256Z,98616.63
2019-03-04T21:55:36.479Z,98607.84
2019-03-04T21:58:02.623Z,98623.92
2019-03-04T22:00:31.726Z,98607.69
2019-03-04T22:03:06.966Z,98637.84
2019-03-04T22:05:32.877Z,98648.94
2019-03-04T22:07:58.769Z,98648.34
2019-03-04T22:10:24.656Z,98649.38
2019-03-04T22:12:50.439Z,98654.75
2019-03-04T22:15:16.210Z,98654.75
2019-03-04T22:17:43.368Z,98654.23
2019-03-04T22:20:10.759Z,98666.23
2019-03-04T22:22:36.639Z,98650.30
2019-03-04T22:25:05.331Z,98660.88
2019-03-04T22:27:31.114Z,98661.15
2019-03-04T22:29:56.921Z,98671.80
2019-03-04T22:32:22.692Z,98672.77
2019-03-04T22:34:48.521Z,98680.44
2019-03-04T22:37:14.301Z,98688.48
2019-03-04T22:39:40.094Z,98670.75
2019-03-04T22:42:05.867Z,98680.98
2019-03-04T22:44:33.002Z,98687.36
2019-03-04T22:46:58.779Z,98680.22
2019-03-04T22:49:25.815Z,98683.05
2019-03-04T22:51:51.623Z,98694.61
2019-03-04T22:54:17.375Z,98703.45
2019-03-04T22:56:43.158Z,98702.41
2019-03-04T22:59:09.113Z,98713.61
2019-03-04T23:01:37.678Z,98712.55
2019-03-04T23:04:14.959Z,98732.66
2019-03-04T23:06:56.566Z,98721.92
2019-03-04T23:09:27.178Z,98717.54
2019-03-04T23:12:15.139Z,98718.51
2019-03-04T23:14:41.030Z,98741.61
2019-03-04T23:17:06.806Z,98731.48
2019-03-04T23:19:32.606Z,98725.14
2019-03-04T23:21:58.415Z,98740.03
2019-03-04T23:24:24.218Z,98737.28
2019-03-04T23:26:49.992Z,98752.17
2019-03-04T23:29:15.761Z,98735.58
2019-03-04T23:31:41.556Z,98743.38
2019-03-04T23:34:07.334Z,98752.94
2019-03-04T23:36:33.120Z,98747.64
2019-03-04T23:38:58.888Z,98742.78
2019-03-04T23:41:24.775Z,98759.17
2019-03-04T23:43:50.550Z,98751.89
2019-03-04T23:46:17.455Z,98755.48
2019-03-04T23:48:43.239Z,98760.61
2019-03-04T23:51:09.027Z,98764.39
2019-03-04T23:53:34.799Z,98762.18
2019-03-04T23:56:00.587Z,98737.14
2019-03-04T23:58:26.366Z,98753.30
